createdAt,value
2018-04-15T00:01:46.269Z,15.00
2018-04-15T00:04:14.523Z,14.90
2018-04-15T00:06:42.009Z,14.90
2018-04-15T00:09:09.475Z,14.80
2018-04-15T00:11:36.966Z,14.80
2018-04-15T00:14:04.436Z,14.80
2018-04-15T00:16:31.939Z,14.80
2018-04-15T00:19:00.183Z,14.70
2018-04-15T00:21:27.672Z,14.70
2018-04-15T00:23:56.006Z,14.70
2018-04-15T00:26:23.479Z,14.60
2018-04-15T00:28:50.978Z,14.60
2018-04-15T00:31:18.543Z,14.60
2018-04-15T00:33:46.767Z,14.50
2018-04-15T00:36:14.267Z,14.50
2018-04-15T00:38:42.489Z,14.50
2018-04-15T00:41:09.965Z,14.50
2018-04-15T00:43:37.432Z,14.50
2018-04-15T00:46:04.916Z,14.50
2018-04-15T00:48:33.147Z,14.50
2018-04-15T00:51:01.427Z,14.40
2018-04-15T00:53:40.724Z,14.40
2018-04-15T00:56:08.975Z,14.30
2018-04-15T00:58:36.464Z,14.30
2018-04-15T01:01:04.028Z,14.30
2018-04-15T01:03:31.507Z,14.20
2018-04-15T01:05:58.996Z,14.20
2018-04-15T01:08:26.464Z,14.10
2018-04-15T01:10:53.975Z,14.10
2018-04-15T01:13:21.513Z,14.10
2018-04-15T01:15:49.009Z,14.00
2018-04-15T01:18:16.490Z,14.00
2018-04-15T01:20:43.959Z,14.00
2018-04-15T01:23:11.456Z,14.00
2018-04-15T01:25:38.925Z,13.90
2018-04-15T01:28:06.388Z,13.90
2018-04-15T01:30:33.926Z,13.90
2018-04-15T01:33:01.408Z,13.90
2018-04-15T01:35:29.004Z,13.90
2018-04-15T01:37:56.456Z,13.90
2018-04-15T01:40:23.964Z,13.90
2018-04-15T01:42:51.424Z,13.90
2018-04-15T01:45:18.926Z,13.90
2018-04-15T01:47:46.390Z,14.00
2018-04-15T01:50:13.883Z,14.00
2018-04-15T01:52:41.335Z,13.90
2018-04-15T01:55:08.787Z,13.90
2018-04-15T01:57:37.033Z,13.80
2018-04-15T02:00:04.480Z,13.80
2018-04-15T02:02:31.967Z,13.80
2018-04-15T02:04:59.434Z,13.80
2018-04-15T02:07:26.894Z,13.70
2018-04-15T02:09:54.386Z,13.70
2018-04-15T02:12:21.835Z,13.70
2018-04-15T02:14:49.291Z,13.70
2018-04-15T02:17:16.776Z,13.70
2018-04-15T02:19:44.245Z,13.70
2018-04-15T02:22:11.724Z,13.70
2018-04-15T02:24:39.203Z,13.70
2018-04-15T02:27:06.660Z,13.60
2018-04-15T02:29:34.150Z,13.60
2018-04-15T02:32:01.610Z,13.60
2018-04-15T02:34:29.124Z,13.60
2018-04-15T02:36:56.589Z,13.60
2018-04-15T02:39:24.038Z,13.60
2018-04-15T02:41:51.543Z,13.60
2018-04-15T02:44:18.999Z,13.70
2018-04-15T02:46:46.480Z,13.70
2018-04-15T02:49:13.940Z,13.80
2018-04-15T02:51:41.519Z,13.80
2018-04-15T02:54:08.996Z,13.70
2018-04-15T02:56:36.488Z,13.70
2018-04-15T02:59:03.955Z,13.60
2018-04-15T03:01:31.423Z,13.70
2018-04-15T03:03:58.904Z,13.70
2018-04-15T03:06:26.371Z,13.60
2018-04-15T03:08:53.858Z,13.60
2018-04-15T03:11:21.325Z,13.70
2018-04-15T03:13:49.566Z,13.60
2018-04-15T03:16:17.051Z,13.70
2018-04-15T03:18:44.514Z,13.70
2018-04-15T03:21:12.820Z,13.80
2018-04-15T03:23:40.287Z,13.70
2018-04-15T03:26:07.766Z,13.80
2018-04-15T03:28:35.267Z,13.70
2018-04-15T03:31:02.735Z,13.70
2018-04-15T03:33:30.966Z,13.70
2018-04-15T03:35:58.495Z,13.70
2018-04-15T03:38:25.960Z,13.70
2018-04-15T03:40:53.438Z,13.70
2018-04-15T03:43:20.906Z,13.80
2018-04-15T03:45:48.379Z,13.80
2018-04-15T03:48:15.856Z,13.80
2018-04-15T03:50:44.148Z,13.80
2018-04-15T03:53:11.637Z,13.80
2018-04-15T03:55:39.120Z,13.80
2018-04-15T03:58:06.698Z,13.80
2018-04-15T04:00:34.182Z,13.80
2018-04-15T04:03:02.432Z,13.80
2018-04-15T04:05:30.673Z,13.80
2018-04-15T04:07:58.139Z,13.80
2018-04-15T04:10:25.623Z,13.80
2018-04-15T04:12:53.088Z,13.80
2018-04-15T04:15:20.566Z,13.80
2018-04-15T04:17:59.897Z,13.80
2018-04-15T04:20:39.208Z,13.80
2018-04-15T04:23:18.469Z,13.80
2018-04-15T04:25:58.416Z,13.80
2018-04-15T04:28:26.676Z,13.80
2018-04-15T04:30:54.143Z,13.70
2018-04-15T04:33:22.372Z,13.80
2018-04-15T04:35:49.854Z,13.80
2018-04-15T04:38:17.318Z,13.80
2018-04-15T04:40:44.843Z,13.80
2018-04-15T04:43:12.307Z,13.80
2018-04-15T04:45:39.791Z,13.80
2018-04-15T04:48:07.271Z,13.80
2018-04-15T04:50:35.523Z,13.80
2018-04-15T04:53:02.987Z,13.80
2018-04-15T04:55:30.474Z,13.80
2018-04-15T04:57:57.932Z,13.80
2018-04-15T05:00:26.332Z,13.90
2018-04-15T05:02:53.819Z,13.90
2018-04-15T05:05:21.289Z,13.90
2018-04-15T05:07:48.751Z,14.00
2018-04-15T05:10:16.228Z,14.00
2018-04-15T05:12:43.715Z,14.00
2018-04-15T05:15:11.202Z,14.10
2018-04-15T05:17:38.660Z,14.10
2018-04-15T05:20:06.152Z,14.10
2018-04-15T05:22:33.612Z,14.00
2018-04-15T05:25:01.147Z,14.00
2018-04-15T05:27:28.635Z,14.10
2018-04-15T05:29:56.208Z,14.10
2018-04-15T05:32:24.451Z,14.20
2018-04-15T05:34:51.963Z,14.10
2018-04-15T05:37:19.477Z,14.20
2018-04-15T05:39:46.935Z,14.20
2018-04-15T05:42:14.741Z,14.20
2018-04-15T05:44:42.268Z,14.30
2018-04-15T05:47:09.777Z,14.30
2018-04-15T05:49:37.268Z,14.30
2018-04-15T05:52:05.124Z,14.30
2018-04-15T05:54:32.681Z,14.40
2018-04-15T05:57:00.155Z,14.40
2018-04-15T05:59:27.678Z,14.50
2018-04-15T06:01:55.141Z,14.60
2018-04-15T06:04:22.612Z,14.60
2018-04-15T06:06:50.168Z,14.70
2018-04-15T06:09:17.663Z,14.70
2018-04-15T06:11:45.129Z,14.70
2018-04-15T06:14:12.592Z,14.70
2018-04-15T06:16:40.094Z,14.70
2018-04-15T06:19:07.554Z,14.70
2018-04-15T06:21:35.021Z,14.60
2018-04-15T06:24:02.506Z,14.60
2018-04-15T06:26:29.968Z,14.60
2018-04-15T06:28:57.456Z,14.60
2018-04-15T06:31:25.737Z,14.60
2018-04-15T06:33:53.960Z,14.70
2018-04-15T06:36:21.444Z,14.60
2018-04-15T06:38:48.923Z,14.80
2018-04-15T06:41:16.409Z,14.90
2018-04-15T06:43:43.867Z,15.00
2018-04-15T06:46:11.355Z,15.10
2018-04-15T06:48:39.671Z,15.20
2018-04-15T06:51:07.917Z,15.30
2018-04-15T06:53:35.476Z,15.30
2018-04-15T06:56:02.936Z,15.40
2018-04-15T06:58:30.423Z,15.50
2018-04-15T07:00:58.064Z,15.50
2018-04-15T07:03:25.528Z,15.50
2018-04-15T07:05:53.024Z,15.60
2018-04-15T07:08:20.493Z,15.60
2018-04-15T07:10:48.038Z,15.60
2018-04-15T07:13:15.539Z,15.60
2018-04-15T07:15:43.012Z,15.60
2018-04-15T07:18:10.472Z,15.70
2018-04-15T07:20:37.950Z,15.80
2018-04-15T07:23:05.488Z,15.90
2018-04-15T07:25:32.963Z,16.00
2018-04-15T07:28:00.450Z,16.20
2018-04-15T07:30:28.751Z,16.50
2018-04-15T07:32:56.196Z,16.40
2018-04-15T07:35:23.676Z,16.50
2018-04-15T07:37:51.131Z,16.40
2018-04-15T07:40:18.755Z,16.30
2018-04-15T07:42:46.243Z,16.20
2018-04-15T07:45:13.802Z,16.10
2018-04-15T07:47:41.247Z,16.00
2018-04-15T07:50:08.776Z,16.00
2018-04-15T07:52:36.243Z,15.90
2018-04-15T07:55:04.658Z,15.90
2018-04-15T07:57:32.227Z,15.90
2018-04-15T07:59:59.695Z,16.00
2018-04-15T08:02:27.287Z,16.00
2018-04-15T08:04:55.531Z,16.10
2018-04-15T08:07:22.974Z,16.00
2018-04-15T08:09:50.463Z,16.20
2018-04-15T08:12:17.909Z,16.40
2018-04-15T08:14:45.580Z,16.50
2018-04-15T08:17:13.121Z,16.60
2018-04-15T08:19:41.330Z,16.80
2018-04-15T08:22:08.798Z,16.80
2018-04-15T08:24:36.471Z,17.10
2018-04-15T08:27:03.953Z,17.30
2018-04-15T08:29:31.548Z,17.50
2018-04-15T08:31:59.020Z,17.70
2018-04-15T08:34:26.495Z,17.80
2018-04-15T08:36:53.946Z,17.90
2018-04-15T08:39:21.439Z,17.80
2018-04-15T08:41:49.656Z,17.50
2018-04-15T08:44:17.113Z,17.40
2018-04-15T08:46:44.659Z,17.40
2018-04-15T08:49:12.220Z,17.40
2018-04-15T08:51:40.142Z,17.50
2018-04-15T08:54:08.642Z,17.70
2018-04-15T08:56:36.135Z,17.70
2018-04-15T08:59:03.915Z,17.70
2018-04-15T09:01:31.412Z,17.60
2018-04-15T09:03:59.643Z,17.40
2018-04-15T09:06:27.943Z,17.40
2018-04-15T09:08:55.423Z,17.40
2018-04-15T09:11:22.880Z,17.40
2018-04-15T09:13:51.099Z,17.60
2018-04-15T09:16:18.577Z,17.60
2018-04-15T09:18:46.024Z,17.70
2018-04-15T09:21:13.559Z,17.60
2018-04-15T09:23:41.007Z,17.70
2018-04-15T09:26:09.247Z,17.80
2018-04-15T09:28:36.698Z,17.70
2018-04-15T09:31:09.879Z,17.80
2018-04-15T09:33:38.097Z,17.80
2018-04-15T09:36:05.594Z,17.80
2018-04-15T09:38:33.184Z,17.80
2018-04-15T09:41:00.885Z,17.80
2018-04-15T09:43:28.599Z,17.80
2018-04-15T09:45:56.206Z,18.00
2018-04-15T09:48:24.000Z,18.30
2018-04-15T09:50:51.666Z,18.60
2018-04-15T09:53:19.132Z,18.90
2018-04-15T09:55:46.694Z,19.20
2018-04-15T09:58:14.149Z,19.50
2018-04-15T10:00:41.618Z,19.70
2018-04-15T10:03:09.154Z,19.80
2018-04-15T10:05:36.599Z,19.80
2018-04-15T10:08:04.227Z,19.80
2018-04-15T10:10:31.753Z,20.00
2018-04-15T10:12:59.262Z,20.20
2018-04-15T10:15:27.519Z,20.40
2018-04-15T10:17:54.979Z,20.40
2018-04-15T10:20:22.477Z,20.20
2018-04-15T10:22:50.702Z,20.10
2018-04-15T10:25:18.168Z,20.00
2018-04-15T10:27:45.617Z,20.10
2018-04-15T10:30:13.099Z,20.20
2018-04-15T10:32:40.609Z,20.20
2018-04-15T10:35:08.046Z,20.20
2018-04-15T10:37:35.534Z,20.30
2018-04-15T10:40:03.010Z,20.40
2018-04-15T10:42:30.485Z,20.40
2018-04-15T10:44:57.928Z,20.50
2018-04-15T10:47:25.490Z,20.60
2018-04-15T10:49:53.800Z,20.90
2018-04-15T10:52:22.017Z,20.90
2018-04-15T10:54:49.483Z,20.90
2018-04-15T10:57:16.964Z,20.90
2018-04-15T10:59:44.427Z,21.00
2018-04-15T11:02:11.905Z,21.10
2018-04-15T11:04:40.136Z,21.20
2018-04-15T11:07:07.637Z,21.20
2018-04-15T11:09:35.079Z,21.10
2018-04-15T11:12:02.537Z,21.10
2018-04-15T11:14:30.019Z,21.20
2018-04-15T11:16:58.232Z,21.50
2018-04-15T11:19:25.699Z,21.50
2018-04-15T11:21:53.246Z,21.70
2018-04-15T11:24:20.706Z,21.60
2018-04-15T11:26:48.268Z,21.50
2018-04-15T11:29:15.713Z,21.30
2018-04-15T11:31:43.164Z,21.10
2018-04-15T11:34:10.643Z,21.00
2018-04-15T11:36:38.129Z,20.90
2018-04-15T11:39:06.387Z,20.90
2018-04-15T11:41:33.891Z,20.90
2018-04-15T11:44:01.343Z,21.00
2018-04-15T11:46:28.868Z,21.00
2018-04-15T11:48:56.322Z,21.10
2018-04-15T11:51:23.839Z,21.20
2018-04-15T11:53:51.243Z,21.30
2018-04-15T11:56:18.712Z,21.30
2018-04-15T11:58:46.235Z,21.20
2018-04-15T12:01:13.707Z,21.10
2018-04-15T12:03:41.165Z,21.10
2018-04-15T12:06:08.640Z,21.10
2018-04-15T12:08:36.143Z,21.10
2018-04-15T12:11:04.447Z,21.30
2018-04-15T12:13:31.894Z,21.30
2018-04-15T12:15:59.414Z,21.40
2018-04-15T12:18:26.865Z,21.40
2018-04-15T12:20:54.344Z,21.40
2018-04-15T12:23:21.789Z,21.50
2018-04-15T12:25:49.250Z,21.60
2018-04-15T12:28:16.723Z,21.80
2018-04-15T12:30:44.183Z,22.00
2018-04-15T12:33:11.672Z,22.10
2018-04-15T12:35:39.158Z,22.20
2018-04-15T12:38:06.612Z,22.20
2018-04-15T12:40:34.135Z,22.20
2018-04-15T12:43:01.638Z,22.20
2018-04-15T12:45:29.144Z,22.30
2018-04-15T12:47:56.653Z,22.20
2018-04-15T12:50:24.141Z,22.10
2018-04-15T12:52:51.600Z,22.10
2018-04-15T12:55:19.076Z,22.00
2018-04-15T12:57:47.308Z,21.90
2018-04-15T13:00:14.883Z,21.90
2018-04-15T13:02:42.365Z,21.90
2018-04-15T13:05:09.843Z,21.70
2018-04-15T13:07:37.353Z,21.60
2018-04-15T13:10:04.869Z,21.50
2018-04-15T13:12:32.357Z,21.40
2018-04-15T13:15:00.007Z,21.30
2018-04-15T13:17:27.475Z,21.20
2018-04-15T13:19:54.940Z,21.10
2018-04-15T13:22:22.412Z,21.00
2018-04-15T13:24:49.982Z,21.10
2018-04-15T13:27:17.458Z,21.20
2018-04-15T13:29:45.877Z,21.40
2018-04-15T13:32:13.548Z,21.40
2018-04-15T13:34:41.158Z,21.50
2018-04-15T13:37:08.916Z,21.40
2018-04-15T13:39:37.192Z,21.40
2018-04-15T13:42:04.800Z,21.40
2018-04-15T13:44:32.331Z,21.30
2018-04-15T13:47:00.662Z,20.90
2018-04-15T13:49:28.276Z,20.90
2018-04-15T13:51:56.638Z,20.60
2018-04-15T13:54:24.324Z,20.50
2018-04-15T13:56:52.562Z,20.40
2018-04-15T13:59:20.114Z,20.40
2018-04-15T14:01:47.912Z,20.50
2018-04-15T14:04:15.419Z,20.50
2018-04-15T14:06:42.871Z,20.50
2018-04-15T14:09:10.498Z,20.50
2018-04-15T14:11:37.993Z,20.60
2018-04-15T14:14:05.472Z,20.70
2018-04-15T14:16:33.132Z,20.80
2018-04-15T14:19:00.729Z,21.10
2018-04-15T14:21:28.287Z,21.30
2018-04-15T14:23:56.056Z,21.50
2018-04-15T14:26:23.550Z,22.00
2018-04-15T14:28:51.014Z,23.10
2018-04-15T14:31:18.533Z,24.50
2018-04-15T14:33:46.771Z,26.10
2018-04-15T14:36:14.243Z,26.10
2018-04-15T14:38:41.716Z,26.00
2018-04-15T14:41:09.192Z,25.90
2018-04-15T14:43:37.412Z,25.40
2018-04-15T14:46:04.884Z,25.40
2018-04-15T14:48:32.333Z,25.00
2018-04-15T14:50:59.815Z,24.70
2018-04-15T14:53:27.263Z,24.40
2018-04-15T14:55:54.740Z,24.40
2018-04-15T14:58:22.193Z,25.60
2018-04-15T15:00:49.675Z,26.40
2018-04-15T15:03:17.967Z,26.10
2018-04-15T15:05:45.425Z,26.10
2018-04-15T15:08:13.190Z,25.80
2018-04-15T15:10:40.679Z,25.50
2018-04-15T15:13:08.913Z,25.20
2018-04-15T15:15:36.399Z,25.20
2018-04-15T15:18:03.890Z,25.40
2018-04-15T15:20:31.354Z,25.80
2018-04-15T15:22:58.819Z,25.80
2018-04-15T15:25:26.300Z,25.60
2018-04-15T15:27:54.536Z,25.00
2018-04-15T15:30:22.019Z,25.00
2018-04-15T15:32:49.491Z,24.70
2018-04-15T15:35:17.727Z,24.00
2018-04-15T15:37:45.197Z,24.00
2018-04-15T15:40:12.670Z,23.70
2018-04-15T15:42:40.128Z,23.60
2018-04-15T15:45:07.658Z,23.50
2018-04-15T15:47:35.107Z,23.50
2018-04-15T15:50:02.592Z,23.40
2018-04-15T15:52:30.035Z,23.30
2018-04-15T15:54:57.519Z,23.10
2018-04-15T15:57:24.991Z,23.00
2018-04-15T15:59:52.436Z,22.80
2018-04-15T16:02:19.887Z,22.60
2018-04-15T16:04:47.359Z,22.40
2018-04-15T16:07:14.816Z,22.20
2018-04-15T16:09:42.290Z,22.00
2018-04-15T16:12:10.516Z,21.80
2018-04-15T16:14:38.045Z,21.80
2018-04-15T16:17:05.500Z,21.70
2018-04-15T16:19:32.987Z,21.60
2018-04-15T16:22:00.443Z,21.50
2018-04-15T16:24:27.904Z,21.50
2018-04-15T16:26:55.382Z,21.40
2018-04-15T16:29:22.864Z,21.30
2018-04-15T16:31:50.502Z,21.30
2018-04-15T16:34:18.007Z,21.30
2018-04-15T16:36:45.450Z,21.30
2018-04-15T16:39:12.971Z,21.30
2018-04-15T16:41:40.418Z,21.30
2018-04-15T16:44:08.082Z,21.30
2018-04-15T16:46:35.600Z,21.30
2018-04-15T16:49:03.062Z,21.20
2018-04-15T16:51:30.831Z,21.20
2018-04-15T16:53:58.677Z,21.10
2018-04-15T16:56:26.304Z,21.00
2018-04-15T16:58:53.814Z,20.90
2018-04-15T17:01:21.432Z,20.80
2018-04-15T17:03:49.018Z,20.70
2018-04-15T17:06:17.489Z,20.60
2018-04-15T17:08:45.046Z,20.50
2018-04-15T17:11:13.472Z,20.40
2018-04-15T17:13:40.973Z,20.40
2018-04-15T17:16:08.774Z,20.40
2018-04-15T17:18:36.450Z,20.30
2018-04-15T17:21:04.147Z,20.30
2018-04-15T17:23:31.742Z,20.30
2018-04-15T17:25:59.269Z,20.20
2018-04-15T17:28:26.702Z,20.20
2018-04-15T17:30:54.194Z,20.20
2018-04-15T17:33:21.648Z,20.20
2018-04-15T17:35:49.095Z,20.10
2018-04-15T17:38:16.572Z,20.10
2018-04-15T17:40:44.028Z,20.10
2018-04-15T17:43:11.492Z,20.00
2018-04-15T17:45:38.964Z,20.00
2018-04-15T17:48:06.440Z,19.90
2018-04-15T17:50:34.679Z,19.80
2018-04-15T17:53:02.179Z,19.80
2018-04-15T17:55:29.800Z,19.70
2018-04-15T17:57:57.251Z,19.70
2018-04-15T18:00:24.727Z,19.60
2018-04-15T18:02:52.195Z,19.60
2018-04-15T18:05:19.668Z,19.50
2018-04-15T18:07:47.120Z,19.40
2018-04-15T18:10:14.622Z,19.40
2018-04-15T18:12:42.124Z,19.30
2018-04-15T18:15:09.584Z,19.30
2018-04-15T18:17:37.071Z,19.20
2018-04-15T18:20:04.598Z,19.20
2018-04-15T18:22:32.008Z,19.10
2018-04-15T18:24:59.488Z,19.00
2018-04-15T18:27:26.951Z,18.90
2018-04-15T18:29:54.423Z,18.90
2018-04-15T18:32:21.878Z,18.80
2018-04-15T18:34:49.342Z,18.80
2018-04-15T18:37:16.817Z,18.70
2018-04-15T18:39:44.367Z,18.70
2018-04-15T18:42:11.851Z,18.60
2018-04-15T18:44:40.088Z,18.50
2018-04-15T18:47:07.550Z,18.50
2018-04-15T18:49:35.027Z,18.50
2018-04-15T18:52:02.523Z,18.40
2018-04-15T18:54:30.089Z,18.30
2018-04-15T18:56:57.584Z,18.30
2018-04-15T18:59:25.031Z,18.30
2018-04-15T19:01:52.470Z,18.20
2018-04-15T19:04:20.161Z,18.20
2018-04-15T19:06:47.736Z,18.10
2018-04-15T19:09:16.166Z,18.10
2018-04-15T19:11:43.650Z,18.10
2018-04-15T19:14:11.106Z,18.00
2018-04-15T19:16:38.960Z,18.00
2018-04-15T19:19:06.434Z,17.90
2018-04-15T19:21:33.945Z,17.90
2018-04-15T19:24:02.231Z,17.80
2018-04-15T19:26:29.687Z,17.80
2018-04-15T19:28:57.346Z,17.80
2018-04-15T19:31:24.981Z,17.80
2018-04-15T19:33:52.488Z,17.70
2018-04-15T19:36:20.043Z,17.70
2018-04-15T19:38:47.890Z,17.70
2018-04-15T19:41:17.101Z,17.70
2018-04-15T19:43:45.162Z,17.60
2018-04-15T19:46:12.987Z,17.70
2018-04-15T19:48:40.888Z,17.70
2018-04-15T19:51:08.755Z,17.60
2018-04-15T19:53:36.594Z,17.60
2018-04-15T19:56:05.076Z,17.60
2018-04-15T19:58:32.995Z,17.60
2018-04-15T20:01:00.837Z,17.60
2018-04-15T20:03:28.619Z,17.60
2018-04-15T20:05:57.330Z,17.60
2018-04-15T20:08:25.994Z,17.60
2018-04-15T20:10:54.373Z,17.60
2018-04-15T20:13:23.320Z,17.60
2018-04-15T20:15:51.314Z,17.60
2018-04-15T20:18:19.608Z,17.50
2018-04-15T20:20:49.113Z,17.50
2018-04-15T20:23:17.642Z,17.50
2018-04-15T20:25:45.445Z,17.50
2018-04-15T20:28:13.785Z,17.40
2018-04-15T20:30:41.278Z,17.40
2018-04-15T20:33:08.764Z,17.40
2018-04-15T20:35:36.214Z,17.30
2018-04-15T20:38:03.683Z,17.30
2018-04-15T20:40:31.263Z,17.30
2018-04-15T20:42:58.724Z,17.20
2018-04-15T20:45:26.185Z,17.20
2018-04-15T20:47:53.986Z,17.20
2018-04-15T20:50:21.427Z,17.20
2018-04-15T20:52:48.878Z,17.20
2018-04-15T20:55:16.384Z,17.20
2018-04-15T20:57:43.830Z,17.20
2018-04-15T21:00:11.280Z,17.20
2018-04-15T21:02:38.768Z,17.20
2018-04-15T21:05:06.982Z,17.10
2018-04-15T21:07:34.464Z,17.10
2018-04-15T21:10:01.974Z,17.20
2018-04-15T21:12:29.472Z,17.10
2018-04-15T21:14:56.928Z,17.10
2018-04-15T21:17:24.391Z,17.10
2018-04-15T21:19:51.867Z,17.10
2018-04-15T21:22:19.331Z,17.10
2018-04-15T21:24:46.797Z,17.10
2018-04-15T21:27:14.263Z,17.00
2018-04-15T21:29:41.717Z,17.00
2018-04-15T21:32:09.223Z,17.00
2018-04-15T21:34:36.663Z,17.00
2018-04-15T21:37:04.188Z,16.90
2018-04-15T21:39:32.418Z,16.90
2018-04-15T21:41:59.890Z,16.90
2018-04-15T21:44:27.344Z,16.90
2018-04-15T21:46:54.820Z,16.90
2018-04-15T21:49:22.300Z,16.90
2018-04-15T21:51:50.532Z,16.90
2018-04-15T21:54:18.016Z,16.90
2018-04-15T21:56:45.473Z,16.80
2018-04-15T21:59:12.947Z,16.80
2018-04-15T22:01:40.447Z,16.80
2018-04-15T22:04:07.900Z,16.70
2018-04-15T22:06:35.536Z,16.70
2018-04-15T22:09:03.862Z,16.70
2018-04-15T22:11:43.123Z,16.70
2018-04-15T22:14:10.601Z,16.60
2018-04-15T22:16:38.052Z,16.60
2018-04-15T22:19:05.520Z,16.60
2018-04-15T22:21:33.745Z,16.50
2018-04-15T22:24:01.215Z,16.50
2018-04-15T22:26:28.687Z,16.50
2018-04-15T22:28:56.148Z,16.60
2018-04-15T22:31:23.649Z,16.50
2018-04-15T22:33:51.100Z,16.50
2018-04-15T22:36:19.350Z,16.50
2018-04-15T22:38:46.803Z,16.50
2018-04-15T22:41:14.280Z,16.50
2018-04-15T22:43:42.500Z,16.50
2018-04-15T22:46:09.959Z,16.50
2018-04-15T22:48:43.087Z,16.50
2018-04-15T22:51:10.544Z,16.50
2018-04-15T22:53:38.014Z,16.50
2018-04-15T22:56:09.252Z,16.40
2018-04-15T22:58:42.350Z,16.40
2018-04-15T23:01:09.794Z,16.40
2018-04-15T23:03:37.269Z,16.40
2018-04-15T23:06:04.748Z,16.40
2018-04-15T23:08:32.980Z,16.40
2018-04-15T23:11:00.450Z,16.40
2018-04-15T23:13:27.963Z,16.40
2018-04-15T23:15:55.432Z,16.40
2018-04-15T23:18:22.879Z,16.40
2018-04-15T23:20:50.344Z,16.40
2018-04-15T23:23:17.939Z,16.40
2018-04-15T23:25:45.414Z,16.40
2018-04-15T23:28:12.871Z,16.40
2018-04-15T23:30:40.340Z,16.40
2018-04-15T23:33:08.571Z,16.50
2018-04-15T23:35:36.587Z,16.40
2018-04-15T23:38:04.807Z,16.50
2018-04-15T23:40:32.276Z,16.50
2018-04-15T23:42:59.750Z,16.50
2018-04-15T23:45:27.248Z,16.50
2018-04-15T23:47:55.477Z,16.50
2018-04-15T23:50:22.939Z,16.50
2018-04-15T23:52:50.419Z,16.50
2018-04-15T23:55:17.893Z,16.50
2018-04-15T23:57:46.220Z,16.40
